createdAt,value
2018-11-29T00:04:12.823Z,16.80
2018-11-29T00:09:35.617Z,14.93
2018-11-29T00:14:54.357Z,13.80
2018-11-29T00:20:14.972Z,15.17
2018-11-29T00:25:33.485Z,13.70
2018-11-29T00:30:52.373Z,15.03
2018-11-29T00:36:11.062Z,12.63
2018-11-29T00:41:29.699Z,10.33
2018-11-29T00:46:48.233Z,12.53
2018-11-29T00:52:06.826Z,12.87
2018-11-29T00:57:25.348Z,12.07
2018-11-29T01:02:44.033Z,12.50
2018-11-29T01:08:02.693Z,14.50
2018-11-29T01:13:22.163Z,13.60
2018-11-29T01:18:40.766Z,9.80
2018-11-29T01:23:59.468Z,13.83
2018-11-29T01:29:18.403Z,13.22
2018-11-29T01:34:37.030Z,13.50
2018-11-29T01:39:57.118Z,10.70
2018-11-29T01:45:15.834Z,15.32
2018-11-29T01:50:34.833Z,13.00
2018-11-29T01:55:53.536Z,10.03
2018-11-29T02:01:12.138Z,16.13
2018-11-29T02:06:30.751Z,12.87
2018-11-29T02:11:49.309Z,15.53
2018-11-29T02:17:08.391Z,12.87
2018-11-29T02:22:27.165Z,13.88
2018-11-29T02:27:45.692Z,12.13
2018-11-29T02:33:04.304Z,11.90
2018-11-29T02:38:22.937Z,14.10
2018-11-29T02:43:42.153Z,14.77
2018-11-29T02:49:00.790Z,12.80
2018-11-29T02:54:20.001Z,18.37
2018-11-29T02:59:38.636Z,12.83
2018-11-29T03:04:59.497Z,15.10
2018-11-29T03:10:23.297Z,16.70
2018-11-29T03:15:41.951Z,15.60
2018-11-29T03:21:01.616Z,16.10
2018-11-29T03:26:20.171Z,14.33
2018-11-29T03:31:38.679Z,16.97
2018-11-29T03:36:58.120Z,15.87
2018-11-29T03:42:16.755Z,19.77
2018-11-29T03:47:35.556Z,19.93
2018-11-29T03:52:54.092Z,18.27
2018-11-29T03:58:13.221Z,17.57
2018-11-29T04:03:31.832Z,13.63
2018-11-29T04:08:50.770Z,17.80
2018-11-29T04:14:09.276Z,19.07
2018-11-29T04:19:28.014Z,21.13
2018-11-29T04:24:46.513Z,15.73
2018-11-29T04:30:08.337Z,14.73
2018-11-29T04:35:27.238Z,19.55
2018-11-29T04:40:45.798Z,18.35
2018-11-29T04:46:44.137Z,16.80
2018-11-29T04:52:02.693Z,18.97
2018-11-29T04:57:21.312Z,16.30
2018-11-29T05:02:39.922Z,18.93
2018-11-29T05:07:59.614Z,17.13
2018-11-29T05:13:18.153Z,17.98
2018-11-29T05:18:36.751Z,14.80
2018-11-29T05:23:56.217Z,17.70
2018-11-29T05:29:14.765Z,18.97
2018-11-29T05:34:33.570Z,18.30
2018-11-29T05:39:52.209Z,18.23
2018-11-29T05:45:11.604Z,21.25
2018-11-29T05:50:30.114Z,21.50
2018-11-29T05:55:48.690Z,23.70
2018-11-29T06:01:12.374Z,23.57
2018-11-29T06:06:30.945Z,20.48
2018-11-29T06:11:49.494Z,28.67
2018-11-29T06:17:08.713Z,22.73
2018-11-29T06:22:28.010Z,23.07
2018-11-29T06:27:46.694Z,22.27
2018-11-29T06:33:06.268Z,27.53
2018-11-29T06:38:24.803Z,26.20
2018-11-29T06:43:43.313Z,27.50
2018-11-29T06:49:02.722Z,30.27
2018-11-29T06:54:21.298Z,27.07
2018-11-29T06:59:39.860Z,26.47
2018-11-29T07:04:59.257Z,24.97
2018-11-29T07:10:22.670Z,22.75
2018-11-29T07:15:41.351Z,25.23
2018-11-29T07:21:11.007Z,25.13
2018-11-29T07:26:29.547Z,23.03
2018-11-29T07:31:48.175Z,22.37
2018-11-29T07:37:07.237Z,25.00
2018-11-29T07:42:26.386Z,26.07
2018-11-29T07:47:45.486Z,28.33
2018-11-29T07:53:04.051Z,27.93
2018-11-29T07:58:23.316Z,22.27
2018-11-29T08:03:42.130Z,23.70
2018-11-29T08:09:00.662Z,20.47
2018-11-29T08:14:19.191Z,21.30
2018-11-29T08:19:37.731Z,22.27
2018-11-29T08:24:56.312Z,19.83
2018-11-29T08:30:15.686Z,17.15
2018-11-29T08:35:34.161Z,21.30
2018-11-29T08:40:52.746Z,17.67
2018-11-29T08:46:11.368Z,19.63
2018-11-29T08:51:29.968Z,16.07
2018-11-29T08:56:48.540Z,12.30
2018-11-29T09:02:07.106Z,13.13
2018-11-29T09:07:25.617Z,16.23
2018-11-29T09:12:44.122Z,14.70
2018-11-29T09:18:02.636Z,13.13
2018-11-29T09:23:21.217Z,12.37
2018-11-29T09:28:39.718Z,15.10
2018-11-29T09:33:58.292Z,12.83
2018-11-29T09:39:16.850Z,12.40
2018-11-29T09:44:35.376Z,14.80
2018-11-29T09:49:53.912Z,11.43
2018-11-29T09:55:17.273Z,15.55
2018-11-29T10:00:35.866Z,15.63
2018-11-29T10:05:54.357Z,13.70
2018-11-29T10:11:12.981Z,19.57
2018-11-29T10:16:31.542Z,15.00
2018-11-29T10:21:50.082Z,16.33
2018-11-29T10:27:08.630Z,16.60
2018-11-29T10:32:27.111Z,19.43
2018-11-29T10:37:45.620Z,16.53
2018-11-29T10:43:04.736Z,17.03
2018-11-29T10:48:24.410Z,15.80
2018-11-29T10:53:43.030Z,16.27
2018-11-29T10:59:01.569Z,17.33
2018-11-29T11:04:20.078Z,17.20
2018-11-29T11:09:39.425Z,15.67
2018-11-29T11:14:57.917Z,18.83
2018-11-29T11:20:16.590Z,13.70
2018-11-29T11:25:35.214Z,18.60
2018-11-29T11:30:54.653Z,16.37
2018-11-29T11:36:13.175Z,14.80
2018-11-29T11:41:32.245Z,14.63
2018-11-29T11:46:50.742Z,13.13
2018-11-29T11:52:09.447Z,15.27
2018-11-29T11:57:27.836Z,15.10
2018-11-29T12:02:47.000Z,18.73
2018-11-29T12:08:05.700Z,18.80
2018-11-29T12:13:25.591Z,20.93
2018-11-29T12:18:45.461Z,17.87
2018-11-29T12:24:04.041Z,20.67
2018-11-29T12:29:22.571Z,18.80
2018-11-29T12:34:41.221Z,17.13
2018-11-29T12:39:59.826Z,21.93
2018-11-29T12:45:18.472Z,21.55
2018-11-29T12:50:38.715Z,18.00
2018-11-29T12:55:57.340Z,20.33
2018-11-29T13:01:16.509Z,22.97
2018-11-29T13:06:35.098Z,20.50
2018-11-29T13:11:53.748Z,18.13
2018-11-29T13:17:12.219Z,17.87
2018-11-29T13:22:30.761Z,15.83
2018-11-29T13:27:49.360Z,17.13
2018-11-29T13:33:09.328Z,18.63
2018-11-29T13:38:27.862Z,21.23
2018-11-29T13:43:47.006Z,17.63
2018-11-29T13:49:06.031Z,18.73
2018-11-29T13:54:24.600Z,15.37
2018-11-29T13:59:43.190Z,18.13
2018-11-29T14:05:01.711Z,17.97
2018-11-29T14:10:22.344Z,16.07
2018-11-29T14:15:40.858Z,17.73
2018-11-29T14:20:59.395Z,16.47
2018-11-29T14:26:17.960Z,20.33
2018-11-29T14:31:36.534Z,16.27
2018-11-29T14:36:55.124Z,15.90
2018-11-29T14:42:13.653Z,12.87
2018-11-29T14:47:32.228Z,13.77
2018-11-29T14:52:50.798Z,12.20
2018-11-29T14:58:11.725Z,15.13
2018-11-29T15:03:30.278Z,11.83
2018-11-29T15:08:48.904Z,10.90
2018-11-29T15:14:07.459Z,11.43
2018-11-29T15:19:26.028Z,11.70
2018-11-29T15:24:44.559Z,10.17
2018-11-29T15:30:05.042Z,11.23
2018-11-29T15:35:23.679Z,12.33
2018-11-29T15:40:42.220Z,12.80
2018-11-29T15:46:01.482Z,17.80
2018-11-29T15:51:19.991Z,14.70
2018-11-29T15:56:38.555Z,15.20
2018-11-29T16:01:57.093Z,11.57
2018-11-29T16:07:16.382Z,12.13
2018-11-29T16:12:34.972Z,13.37
2018-11-29T16:17:53.851Z,13.00
2018-11-29T16:23:13.206Z,13.90
2018-11-29T16:28:31.785Z,14.87
2018-11-29T16:33:50.253Z,13.40
2018-11-29T16:39:08.904Z,13.40
2018-11-29T16:44:28.313Z,12.53
2018-11-29T16:49:46.926Z,12.20
2018-11-29T16:55:08.037Z,10.47
2018-11-29T17:00:26.624Z,12.27
2018-11-29T17:05:45.164Z,13.33
2018-11-29T17:11:03.714Z,11.93
2018-11-29T17:16:22.316Z,13.77
2018-11-29T17:21:41.209Z,12.07
2018-11-29T17:26:59.887Z,11.60
2018-11-29T17:32:18.427Z,13.00
2018-11-29T17:37:37.064Z,10.93
2018-11-29T17:42:56.388Z,12.37
2018-11-29T17:48:14.976Z,14.07
2018-11-29T17:53:34.809Z,12.13
2018-11-29T17:58:53.425Z,13.40
2018-11-29T18:04:12.043Z,18.63
2018-11-29T18:09:30.562Z,13.87
2018-11-29T18:14:49.123Z,14.67
2018-11-29T18:20:09.924Z,14.83
2018-11-29T18:25:29.405Z,13.43
2018-11-29T18:30:47.902Z,15.47
2018-11-29T18:36:07.193Z,18.00
2018-11-29T18:41:25.955Z,16.43
2018-11-29T18:46:44.542Z,16.17
2018-11-29T18:52:03.046Z,16.63
2018-11-29T18:57:21.621Z,13.90
2018-11-29T19:02:40.200Z,14.57
2018-11-29T19:07:58.705Z,15.40
2018-11-29T19:13:17.355Z,13.00
2018-11-29T19:18:36.138Z,12.53
2018-11-29T19:23:54.679Z,14.97
2018-11-29T19:29:13.746Z,10.47
2018-11-29T19:34:32.298Z,10.43
2018-11-29T19:39:50.936Z,13.47
2018-11-29T19:45:12.010Z,14.80
2018-11-29T19:50:31.439Z,9.70
2018-11-29T19:55:51.537Z,17.60
2018-11-29T20:01:10.350Z,10.97
2018-11-29T20:06:29.847Z,10.67
2018-11-29T20:11:48.379Z,11.57
2018-11-29T20:17:07.162Z,12.47
2018-11-29T20:22:26.509Z,12.57
2018-11-29T20:27:45.338Z,11.60
2018-11-29T20:33:03.884Z,12.17
2018-11-29T20:38:22.361Z,12.10
2018-11-29T20:43:40.942Z,11.47
2018-11-29T20:48:59.588Z,12.03
2018-11-29T20:54:18.339Z,12.30
2018-11-29T20:59:37.106Z,11.47
2018-11-29T21:04:56.463Z,11.07
2018-11-29T21:10:21.792Z,11.27
2018-11-29T21:15:41.809Z,11.60
2018-11-29T21:21:00.394Z,14.73
2018-11-29T21:26:18.999Z,12.03
2018-11-29T21:31:39.025Z,13.97
2018-11-29T21:36:58.297Z,11.83
2018-11-29T21:42:16.801Z,13.53
2018-11-29T21:47:35.353Z,13.37
2018-11-29T21:52:53.876Z,13.27
2018-11-29T21:58:13.182Z,13.17
2018-11-29T22:03:31.692Z,10.77
2018-11-29T22:08:50.981Z,8.87
2018-11-29T22:14:09.513Z,9.63
2018-11-29T22:19:27.993Z,9.88
2018-11-29T22:24:46.557Z,11.03
2018-11-29T22:30:07.227Z,11.70
2018-11-29T22:35:25.743Z,10.13
2018-11-29T22:40:45.068Z,13.10
2018-11-29T22:46:03.737Z,12.17
2018-11-29T22:51:22.253Z,10.97
2018-11-29T22:56:41.403Z,8.97
2018-11-29T23:01:59.901Z,15.15
2018-11-29T23:07:18.583Z,12.10
2018-11-29T23:12:37.154Z,10.50
2018-11-29T23:17:55.698Z,8.63
2018-11-29T23:23:14.912Z,10.90
2018-11-29T23:28:33.937Z,11.87
2018-11-29T23:33:52.489Z,10.10
2018-11-29T23:39:11.078Z,9.30
2018-11-29T23:44:29.670Z,14.77
2018-11-29T23:49:48.245Z,9.90
2018-11-29T23:55:08.753Z,10.00
